createdAt,value
2023-02-08T00:01:59.420Z,14.00
2023-02-08T00:05:00.236Z,13.68
2023-02-08T00:08:02.011Z,14.30
2023-02-08T00:11:04.027Z,13.82
2023-02-08T00:14:05.974Z,14.48
2023-02-08T00:17:06.622Z,14.32
2023-02-08T00:20:08.237Z,13.63
2023-02-08T00:23:09.293Z,13.73
2023-02-08T00:26:11.117Z,14.13
2023-02-08T00:29:12.617Z,13.27
2023-02-08T00:32:13.408Z,15.18
2023-02-08T00:35:14.339Z,15.18
2023-02-08T00:38:15.446Z,15.77
2023-02-08T00:41:16.267Z,14.70
2023-02-08T00:44:17.647Z,14.35
2023-02-08T00:47:18.656Z,14.90
2023-02-08T00:50:19.468Z,14.27
2023-02-08T00:53:20.136Z,15.60
2023-02-08T00:56:21.443Z,14.90
2023-02-08T00:59:22.225Z,14.68
2023-02-08T01:02:22.964Z,14.77
2023-02-08T01:05:25.168Z,14.52
2023-02-08T01:08:25.992Z,15.05
2023-02-08T01:11:27.504Z,15.82
2023-02-08T01:14:28.484Z,15.80
2023-02-08T01:17:29.225Z,14.60
2023-02-08T01:20:30.438Z,15.18
2023-02-08T01:23:31.116Z,14.82
2023-02-08T01:26:33.571Z,13.45
2023-02-08T01:29:34.526Z,14.50
2023-02-08T01:32:35.763Z,14.43
2023-02-08T01:35:36.777Z,15.27
2023-02-08T01:38:39.838Z,14.48
2023-02-08T01:41:44.545Z,14.20
2023-02-08T01:45:24.550Z,15.80
2023-02-08T01:48:41.814Z,14.98
2023-02-08T01:51:50.481Z,15.98
2023-02-08T01:55:05.248Z,16.48
2023-02-08T01:58:10.825Z,15.45
2023-02-08T02:01:13.894Z,15.38
2023-02-08T02:04:15.759Z,14.75
2023-02-08T02:07:19.372Z,14.68
2023-02-08T02:10:29.478Z,14.35
2023-02-08T02:13:32.837Z,14.18
2023-02-08T02:16:33.955Z,15.32
2023-02-08T02:20:16.457Z,14.82
2023-02-08T02:23:56.150Z,14.95
2023-02-08T02:27:29.818Z,14.25
2023-02-08T02:31:27.936Z,15.45
2023-02-08T02:35:02.924Z,13.00
2023-02-08T02:39:03.058Z,13.50
2023-02-08T02:42:38.933Z,14.23
2023-02-08T02:45:54.705Z,13.40
2023-02-08T02:49:33.105Z,14.50
2023-02-08T02:53:18.164Z,14.15
2023-02-08T02:56:26.977Z,13.90
2023-02-08T02:59:32.114Z,14.77
2023-02-08T03:02:33.074Z,14.48
2023-02-08T03:05:34.076Z,13.80
2023-02-08T03:09:01.914Z,15.60
2023-02-08T03:12:34.631Z,14.60
2023-02-08T03:16:13.294Z,15.23
2023-02-08T03:19:37.354Z,15.23
2023-02-08T03:22:59.373Z,13.88
2023-02-08T03:26:34.415Z,14.98
2023-02-08T03:30:14.194Z,13.57
2023-02-08T03:33:26.386Z,13.90
2023-02-08T03:36:38.507Z,15.13
2023-02-08T03:39:42.580Z,13.93
2023-02-08T03:42:49.090Z,14.00
2023-02-08T03:46:03.598Z,13.30
2023-02-08T03:49:14.153Z,13.90
2023-02-08T03:52:15.614Z,13.77
2023-02-08T03:55:31.774Z,14.15
2023-02-08T03:58:43.902Z,13.15
2023-02-08T04:01:52.478Z,15.55
2023-02-08T04:04:54.902Z,14.13
2023-02-08T04:07:55.810Z,13.93
2023-02-08T04:10:56.599Z,14.35
2023-02-08T04:13:57.349Z,13.23
2023-02-08T04:16:58.023Z,13.88
2023-02-08T04:19:58.925Z,13.77
2023-02-08T04:22:59.628Z,14.02
2023-02-08T04:26:00.325Z,12.95
2023-02-08T04:29:01.539Z,13.50
2023-02-08T04:32:02.683Z,13.45
2023-02-08T04:35:04.319Z,14.25
2023-02-08T04:38:05.049Z,13.30
2023-02-08T04:41:05.956Z,13.35
2023-02-08T04:44:07.231Z,13.48
2023-02-08T04:47:08.311Z,13.27
2023-02-08T04:50:10.842Z,13.70
2023-02-08T04:53:11.890Z,11.90
2023-02-08T04:56:12.723Z,12.55
2023-02-08T04:59:13.692Z,13.60
2023-02-08T05:02:14.501Z,13.50
2023-02-08T05:05:15.356Z,13.55
2023-02-08T05:08:16.013Z,13.15
2023-02-08T05:11:25.880Z,13.68
2023-02-08T05:14:27.116Z,13.63
2023-02-08T05:17:28.403Z,12.48
2023-02-08T05:20:29.933Z,12.82
2023-02-08T05:23:32.309Z,13.63
2023-02-08T05:26:33.553Z,11.82
2023-02-08T05:29:34.761Z,13.07
2023-02-08T05:32:35.969Z,12.73
2023-02-08T05:35:36.755Z,12.60
2023-02-08T05:38:37.625Z,11.90
2023-02-08T05:41:38.993Z,12.25
2023-02-08T05:44:40.211Z,13.45
2023-02-08T05:47:40.986Z,12.23
2023-02-08T05:50:41.944Z,13.27
2023-02-08T05:53:44.246Z,13.85
2023-02-08T05:56:45.168Z,12.68
2023-02-08T05:59:45.931Z,12.60
2023-02-08T06:02:46.803Z,11.55
2023-02-08T06:05:47.690Z,12.73
2023-02-08T06:08:48.533Z,12.27
2023-02-08T06:11:49.234Z,12.43
2023-02-08T06:14:50.142Z,13.18
2023-02-08T06:17:51.322Z,13.30
2023-02-08T06:20:55.616Z,12.98
2023-02-08T06:23:56.550Z,12.77
2023-02-08T06:26:57.739Z,14.18
2023-02-08T06:29:58.671Z,12.52
2023-02-08T06:32:59.735Z,13.63
2023-02-08T06:36:00.528Z,13.18
2023-02-08T06:39:01.799Z,12.93
2023-02-08T06:42:02.550Z,13.52
2023-02-08T06:45:03.885Z,14.27
2023-02-08T06:48:05.477Z,13.63
2023-02-08T06:51:06.216Z,13.07
2023-02-08T06:54:07.652Z,12.52
2023-02-08T06:57:08.735Z,13.13
2023-02-08T07:00:10.735Z,13.27
2023-02-08T07:03:13.599Z,13.38
2023-02-08T07:06:17.190Z,13.00
2023-02-08T07:09:18.168Z,13.15
2023-02-08T07:12:18.878Z,11.45
2023-02-08T07:15:19.750Z,13.77
2023-02-08T07:18:20.910Z,12.48
2023-02-08T07:21:21.977Z,12.98
2023-02-08T07:24:24.057Z,12.65
2023-02-08T07:27:26.143Z,13.20
2023-02-08T07:30:27.092Z,12.25
2023-02-08T07:33:27.907Z,13.90
2023-02-08T07:36:28.867Z,13.23
2023-02-08T07:39:31.486Z,12.98
2023-02-08T07:42:33.749Z,13.60
2023-02-08T07:45:58.218Z,12.85
2023-02-08T07:48:58.978Z,11.65
2023-02-08T07:52:01.432Z,12.13
2023-02-08T07:55:02.491Z,12.60
2023-02-08T07:58:03.178Z,12.13
2023-02-08T08:01:16.147Z,12.88
2023-02-08T08:04:22.366Z,12.65
2023-02-08T08:07:23.030Z,12.70
2023-02-08T08:10:24.245Z,13.23
2023-02-08T08:13:25.337Z,13.20
2023-02-08T08:16:26.273Z,14.02
2023-02-08T08:19:27.013Z,12.73
2023-02-08T08:22:28.095Z,13.13
2023-02-08T08:25:29.246Z,13.32
2023-02-08T08:28:30.469Z,13.02
2023-02-08T08:31:31.604Z,12.90
2023-02-08T08:34:32.477Z,12.68
2023-02-08T08:37:34.077Z,13.07
2023-02-08T08:40:35.053Z,12.57
2023-02-08T08:43:35.831Z,13.05
2023-02-08T08:46:37.174Z,12.20
2023-02-08T08:49:38.890Z,12.25
2023-02-08T08:52:40.394Z,14.07
2023-02-08T08:55:41.289Z,13.20
2023-02-08T08:58:43.609Z,13.07
2023-02-08T09:01:44.948Z,12.70
2023-02-08T09:04:46.221Z,13.05
2023-02-08T09:07:46.947Z,13.23
2023-02-08T09:10:47.849Z,13.18
2023-02-08T09:13:53.014Z,13.23
2023-02-08T09:16:54.098Z,14.10
2023-02-08T09:19:55.139Z,13.63
2023-02-08T09:22:56.923Z,12.57
2023-02-08T09:25:58.178Z,13.48
2023-02-08T09:28:59.797Z,14.23
2023-02-08T09:32:00.654Z,13.27
2023-02-08T09:35:02.534Z,12.57
2023-02-08T09:38:04.668Z,13.60
2023-02-08T09:41:42.867Z,14.48
2023-02-08T09:45:10.448Z,13.00
2023-02-08T09:48:32.852Z,12.98
2023-02-08T09:51:43.759Z,12.32
2023-02-08T09:54:57.046Z,12.90
2023-02-08T09:58:03.526Z,12.57
2023-02-08T10:01:07.749Z,11.77
2023-02-08T10:04:41.566Z,13.27
2023-02-08T10:07:43.946Z,13.15
2023-02-08T10:11:23.472Z,13.13
2023-02-08T10:15:03.415Z,11.50
2023-02-08T10:19:06.997Z,12.27
2023-02-08T10:22:34.762Z,12.15
2023-02-08T10:25:50.653Z,12.77
2023-02-08T10:29:12.367Z,14.07
2023-02-08T10:32:40.193Z,13.27
2023-02-08T10:35:48.997Z,12.60
2023-02-08T10:38:53.905Z,12.90
2023-02-08T10:41:55.417Z,13.40
2023-02-08T10:45:10.261Z,13.32
2023-02-08T10:48:45.033Z,13.07
2023-02-08T10:51:47.622Z,12.90
2023-02-08T10:54:48.505Z,13.93
2023-02-08T10:57:56.049Z,13.25
2023-02-08T11:00:58.676Z,13.50
2023-02-08T11:04:11.423Z,13.20
2023-02-08T11:07:21.596Z,14.27
2023-02-08T11:10:25.813Z,14.00
2023-02-08T11:13:51.492Z,14.15
2023-02-08T11:16:58.063Z,13.52
2023-02-08T11:20:00.402Z,13.63
2023-02-08T11:23:01.298Z,12.95
2023-02-08T11:26:39.686Z,13.18
2023-02-08T11:29:40.784Z,13.55
2023-02-08T11:32:48.676Z,13.05
2023-02-08T11:36:09.962Z,13.52
2023-02-08T11:39:26.801Z,12.85
2023-02-08T11:42:35.451Z,13.88
2023-02-08T11:45:37.556Z,13.65
2023-02-08T11:48:51.496Z,13.23
2023-02-08T11:51:53.504Z,12.63
2023-02-08T11:55:11.510Z,13.48
2023-02-08T11:58:12.672Z,12.15
2023-02-08T12:01:21.001Z,13.00
2023-02-08T12:04:22.365Z,12.63
2023-02-08T12:07:41.209Z,12.00
2023-02-08T12:11:01.694Z,12.85
2023-02-08T12:14:27.676Z,13.43
2023-02-08T12:17:52.248Z,14.80
2023-02-08T12:21:22.954Z,13.85
2023-02-08T12:25:09.531Z,12.57
2023-02-08T12:28:51.129Z,12.45
2023-02-08T12:32:22.925Z,12.07
2023-02-08T12:36:05.394Z,11.27
2023-02-08T12:39:57.322Z,12.43
2023-02-08T12:43:44.152Z,12.63
2023-02-08T12:47:26.102Z,13.15
2023-02-08T12:50:47.959Z,14.38
2023-02-08T12:53:57.865Z,13.00
2023-02-08T12:57:02.857Z,12.82
2023-02-08T13:00:32.456Z,13.30
2023-02-08T13:04:00.095Z,14.95
2023-02-08T13:07:22.155Z,12.65
2023-02-08T13:10:42.138Z,13.18
2023-02-08T13:13:48.219Z,13.23
2023-02-08T13:16:55.842Z,13.13
2023-02-08T13:20:20.634Z,11.77
2023-02-08T13:23:46.821Z,13.55
2023-02-08T13:26:52.980Z,14.52
2023-02-08T13:29:54.297Z,13.68
2023-02-08T13:32:56.575Z,13.30
2023-02-08T13:35:58.993Z,14.73
2023-02-08T13:39:04.698Z,14.77
2023-02-08T13:42:19.101Z,15.05
2023-02-08T13:45:34.434Z,14.25
2023-02-08T13:48:52.602Z,11.95
2023-02-08T13:51:54.545Z,14.50
2023-02-08T13:55:30.926Z,14.13
2023-02-08T13:58:49.914Z,13.20
2023-02-08T14:02:13.054Z,13.70
2023-02-08T14:05:45.241Z,13.70
2023-02-08T14:09:28.742Z,13.82
2023-02-08T14:13:02.467Z,13.65
2023-02-08T14:16:27.262Z,16.05
2023-02-08T14:19:28.162Z,15.52
2023-02-08T14:22:39.063Z,14.88
2023-02-08T14:25:48.560Z,14.82
2023-02-08T14:29:00.113Z,15.63
2023-02-08T14:32:01.629Z,16.13
2023-02-08T14:35:20.911Z,15.38
2023-02-08T14:38:24.915Z,16.52
2023-02-08T14:42:04.052Z,15.43
2023-02-08T14:45:06.158Z,15.85
2023-02-08T14:48:31.898Z,16.20
2023-02-08T14:51:37.194Z,15.07
2023-02-08T14:54:53.263Z,15.70
2023-02-08T14:57:59.121Z,14.20
2023-02-08T15:01:20.589Z,15.43
2023-02-08T15:04:22.093Z,16.20
2023-02-08T15:07:57.970Z,15.05
2023-02-08T15:10:59.279Z,16.00
2023-02-08T15:14:05.071Z,14.27
2023-02-08T15:17:07.578Z,16.40
2023-02-08T15:20:39.382Z,14.88
2023-02-08T15:23:40.165Z,15.95
2023-02-08T15:26:53.404Z,15.60
2023-02-08T15:29:54.480Z,15.50
2023-02-08T15:32:56.714Z,15.30
2023-02-08T15:36:06.756Z,16.00
2023-02-08T15:39:35.940Z,15.68
2023-02-08T15:42:44.300Z,15.73
2023-02-08T15:46:00.064Z,14.95
2023-02-08T15:49:01.808Z,15.60
2023-02-08T15:52:05.067Z,14.50
2023-02-08T15:55:15.933Z,15.80
2023-02-08T15:58:37.776Z,16.38
2023-02-08T16:01:38.713Z,15.63
2023-02-08T16:04:46.928Z,15.63
2023-02-08T16:07:48.966Z,16.08
2023-02-08T16:10:58.918Z,16.65
2023-02-08T16:14:04.247Z,14.55
2023-02-08T16:17:05.365Z,15.65
2023-02-08T16:20:34.336Z,15.75
2023-02-08T16:23:39.031Z,14.55
2023-02-08T16:26:57.175Z,15.88
2023-02-08T16:29:59.601Z,17.60
2023-02-08T16:33:08.278Z,17.90
2023-02-08T16:36:25.544Z,17.02
2023-02-08T16:39:50.596Z,15.63
2023-02-08T16:42:51.417Z,16.98
2023-02-08T16:46:11.003Z,15.77
2023-02-08T16:49:11.845Z,17.70
2023-02-08T16:52:13.250Z,16.75
2023-02-08T16:55:22.429Z,15.88
2023-02-08T16:58:24.860Z,15.90
2023-02-08T17:01:27.062Z,17.35
2023-02-08T17:04:30.659Z,17.33
2023-02-08T17:07:32.279Z,16.90
2023-02-08T17:10:34.650Z,16.00
2023-02-08T17:13:35.594Z,16.52
2023-02-08T17:16:38.793Z,16.30
2023-02-08T17:19:39.809Z,18.45
2023-02-08T17:22:40.639Z,19.05
2023-02-08T17:25:42.827Z,17.55
2023-02-08T17:28:44.922Z,22.08
2023-02-08T17:31:46.020Z,19.05
2023-02-08T17:34:47.156Z,20.58
2023-02-08T17:37:50.525Z,21.13
2023-02-08T17:40:51.891Z,20.58
2023-02-08T17:43:55.902Z,20.67
2023-02-08T17:46:56.830Z,20.50
2023-02-08T17:49:58.129Z,23.65
2023-02-08T17:52:58.951Z,22.25
2023-02-08T17:55:59.806Z,22.25
2023-02-08T17:59:05.583Z,20.65
2023-02-08T18:02:07.561Z,19.92
2023-02-08T18:05:08.808Z,19.80
2023-02-08T18:08:09.513Z,20.58
2023-02-08T18:11:24.308Z,20.75
2023-02-08T18:14:25.353Z,21.10
2023-02-08T18:17:27.131Z,20.83
2023-02-08T18:20:28.499Z,20.30
2023-02-08T18:23:29.446Z,20.17
2023-02-08T18:26:33.627Z,19.98
2023-02-08T18:29:34.533Z,18.77
2023-02-08T18:32:35.384Z,20.35
2023-02-08T18:35:37.734Z,19.60
2023-02-08T18:38:41.363Z,18.77
2023-02-08T18:41:43.530Z,18.17
2023-02-08T18:44:44.419Z,18.92
2023-02-08T18:47:45.342Z,19.45
2023-02-08T18:50:54.752Z,20.95
2023-02-08T18:53:56.232Z,18.23
2023-02-08T18:56:57.667Z,18.67
2023-02-08T18:59:58.582Z,18.65
2023-02-08T19:02:59.857Z,18.88
2023-02-08T19:06:13.905Z,18.85
2023-02-08T19:09:14.582Z,17.55
2023-02-08T19:12:15.814Z,19.50
2023-02-08T19:15:16.839Z,17.50
2023-02-08T19:18:17.669Z,19.00
2023-02-08T19:21:20.128Z,20.70
2023-02-08T19:24:21.066Z,18.80
2023-02-08T19:27:21.870Z,18.40
2023-02-08T19:30:23.158Z,18.85
2023-02-08T19:33:24.072Z,17.30
2023-02-08T19:36:41.193Z,17.77
2023-02-08T19:39:42.350Z,17.13
2023-02-08T19:42:44.644Z,17.45
2023-02-08T19:45:45.968Z,17.52
2023-02-08T19:48:47.227Z,16.95
2023-02-08T19:51:48.408Z,18.40
2023-02-08T19:54:49.842Z,17.73
2023-02-08T19:57:50.797Z,18.33
2023-02-08T20:00:52.536Z,18.88
2023-02-08T20:03:54.529Z,17.05
2023-02-08T20:06:55.346Z,18.48
2023-02-08T20:09:56.233Z,17.55
2023-02-08T20:12:57.122Z,18.63
2023-02-08T20:15:59.939Z,19.27
2023-02-08T20:19:01.786Z,19.85
2023-02-08T20:22:03.374Z,19.27
2023-02-08T20:25:04.574Z,17.80
2023-02-08T20:28:05.806Z,20.27
2023-02-08T20:31:13.262Z,18.85
2023-02-08T20:37:20.803Z,17.88
2023-02-08T20:40:22.525Z,19.48
2023-02-08T20:43:23.384Z,19.67
2023-02-08T20:46:30.837Z,20.70
2023-02-08T20:49:32.554Z,20.83
2023-02-08T20:52:34.510Z,21.42
2023-02-08T20:55:35.268Z,20.33
2023-02-08T20:58:37.139Z,20.98
2023-02-08T21:01:38.736Z,20.33
2023-02-08T21:04:39.702Z,21.40
2023-02-08T21:07:41.240Z,20.92
2023-02-08T21:10:42.384Z,21.33
2023-02-08T21:13:43.547Z,20.85
2023-02-08T21:16:54.022Z,21.77
2023-02-08T21:19:54.991Z,20.95
2023-02-08T21:22:55.792Z,23.00
2023-02-08T21:25:58.867Z,23.25
2023-02-08T21:29:03.311Z,22.73
2023-02-08T21:32:04.658Z,24.42
2023-02-08T21:35:06.554Z,25.08
2023-02-08T21:38:07.923Z,23.45
2023-02-08T21:41:23.124Z,24.38
2023-02-08T21:44:24.281Z,26.27
2023-02-08T21:47:25.567Z,24.15
2023-02-08T21:50:46.977Z,24.90
2023-02-08T21:54:06.417Z,26.13
2023-02-08T21:57:19.317Z,23.58
2023-02-08T22:00:20.361Z,24.10
2023-02-08T22:03:21.635Z,25.73
2023-02-08T22:06:22.691Z,27.27
2023-02-08T22:09:23.832Z,27.77
2023-02-08T22:12:24.650Z,27.05
2023-02-08T22:15:30.402Z,24.63
2023-02-08T22:18:31.510Z,26.23
2023-02-08T22:21:33.275Z,25.83
2023-02-08T22:24:35.780Z,25.98
2023-02-08T22:27:39.268Z,24.00
2023-02-08T22:30:40.453Z,24.65
2023-02-08T22:33:42.701Z,24.98
2023-02-08T22:36:43.715Z,26.70
2023-02-08T22:39:44.976Z,25.67
2023-02-08T22:42:46.393Z,24.92
2023-02-08T22:46:00.762Z,25.02
2023-02-08T22:49:01.727Z,25.95
2023-02-08T22:52:07.547Z,26.80
2023-02-08T22:55:08.941Z,28.13
2023-02-08T22:58:10.015Z,26.23
2023-02-08T23:01:17.288Z,23.42
2023-02-08T23:04:18.366Z,23.52
2023-02-08T23:07:19.588Z,25.45
2023-02-08T23:10:20.582Z,25.15
2023-02-08T23:13:21.805Z,23.58
2023-02-08T23:16:22.698Z,25.92
2023-02-08T23:19:24.031Z,27.33
2023-02-08T23:22:24.801Z,26.55
2023-02-08T23:25:25.930Z,27.08
2023-02-08T23:28:27.198Z,25.98
2023-02-08T23:31:28.424Z,25.20
2023-02-08T23:34:29.634Z,28.60
2023-02-08T23:37:30.760Z,27.13
2023-02-08T23:40:32.016Z,27.40
2023-02-08T23:43:33.765Z,27.88
2023-02-08T23:46:34.869Z,28.33
2023-02-08T23:49:36.122Z,26.67
2023-02-08T23:52:37.736Z,26.75
2023-02-08T23:55:38.706Z,26.02
2023-02-08T23:58:39.834Z,27.85
